sensor_id;sensor_type;location;lat;lon;timestamp;temperature;humidity
9907;DHT22;4992;51.628;6.664;2023-02-28T06:23:37;-2.40;99.90
9907;DHT22;4992;51.628;6.664;2023-02-28T06:26:03;-3.10;99.90
9907;DHT22;4992;51.628;6.664;2023-02-28T06:28:29;-3.30;99.90
9907;DHT22;4992;51.628;6.664;2023-02-28T06:30:54;-3.40;99.90
9907;DHT22;4992;51.628;6.664;2023-02-28T06:33:20;-3.40;99.90
9907;DHT22;4992;51.628;6.664;2023-02-28T06:35:47;-3.50;99.90
9907;DHT22;4992;51.628;6.664;2023-02-28T06:38:15;-3.50;99.90
9907;DHT22;4992;51.628;6.664;2023-02-28T06:40:40;-3.50;99.90
9907;DHT22;4992;51.628;6.664;2023-02-28T06:43:06;-3.50;99.90
9907;DHT22;4992;51.628;6.664;2023-02-28T06:45:32;-3.50;99.90
9907;DHT22;4992;51.628;6.664;2023-02-28T06:47:58;-3.50;99.90
9907;DHT22;4992;51.628;6.664;2023-02-28T06:50:25;-3.50;99.90
9907;DHT22;4992;51.628;6.664;2023-02-28T06:52:52;-3.50;99.90
9907;DHT22;4992;51.628;6.664;2023-02-28T06:55:19;-3.50;99.90
9907;DHT22;4992;51.628;6.664;2023-02-28T06:57:45;-3.50;99.90
9907;DHT22;4992;51.628;6.664;2023-02-28T07:00:11;-3.40;99.90
9907;DHT22;4992;51.628;6.664;2023-02-28T07:02:37;-3.40;99.90
9907;DHT22;4992;51.628;6.664;2023-02-28T07:05:04;-3.40;99.90
9907;DHT22;4992;51.628;6.664;2023-02-28T07:07:30;-3.30;99.90
9907;DHT22;4992;51.628;6.664;2023-02-28T07:09:56;-3.30;99.90
9907;DHT22;4992;51.628;6.664;2023-02-28T07:12:21;-3.20;99.90
9907;DHT22;4992;51.628;6.664;2023-02-28T07:14:47;-3.10;99.90
9907;DHT22;4992;51.628;6.664;2023-02-28T07:17:13;-3.10;99.90
9907;DHT22;4992;51.628;6.664;2023-02-28T07:19:39;-3.00;99.90
9907;DHT22;4992;51.628;6.664;2023-02-28T07:22:05;-3.00;99.90
9907;DHT22;4992;51.628;6.664;2023-02-28T07:24:31;-2.90;99.90
9907;DHT22;4992;51.628;6.664;2023-02-28T07:26:57;-2.90;99.90
9907;DHT22;4992;51.628;6.664;2023-02-28T07:29:24;-2.80;99.90
9907;DHT22;4992;51.628;6.664;2023-02-28T07:31:50;-2.80;99.90
9907;DHT22;4992;51.628;6.664;2023-02-28T07:34:18;-2.70;99.90
9907;DHT22;4992;51.628;6.664;2023-02-28T07:36:44;-2.60;99.90
9907;DHT22;4992;51.628;6.664;2023-02-28T07:39:09;-2.50;99.90
9907;DHT22;4992;51.628;6.664;2023-02-28T07:41:35;-2.40;99.90
9907;DHT22;4992;51.628;6.664;2023-02-28T07:44:04;-2.30;99.90
9907;DHT22;4992;51.628;6.664;2023-02-28T07:46:30;-2.20;99.90
9907;DHT22;4992;51.628;6.664;2023-02-28T07:49:00;-1.90;99.90
9907;DHT22;4992;51.628;6.664;2023-02-28T07:51:28;-1.70;99.90
9907;DHT22;4992;51.628;6.664;2023-02-28T07:53:54;-1.50;99.90
9907;DHT22;4992;51.628;6.664;2023-02-28T07:56:19;-1.30;99.90
9907;DHT22;4992;51.628;6.664;2023-02-28T07:58:45;-1.00;99.90
9907;DHT22;4992;51.628;6.664;2023-02-28T08:01:11;-0.80;99.90
9907;DHT22;4992;51.628;6.664;2023-02-28T08:03:38;-0.50;99.90
9907;DHT22;4992;51.628;6.664;2023-02-28T08:06:04;-0.30;99.90
9907;DHT22;4992;51.628;6.664;2023-02-28T08:08:30;-0.10;99.90
9907;DHT22;4992;51.628;6.664;2023-02-28T08:10:59;0.10;99.90
9907;DHT22;4992;51.628;6.664;2023-02-28T08:13:26;0.30;99.90
9907;DHT22;4992;51.628;6.664;2023-02-28T08:15:53;0.50;99.90
9907;DHT22;4992;51.628;6.664;2023-02-28T08:18:19;0.80;99.90
9907;DHT22;4992;51.628;6.664;2023-02-28T08:20:44;1.00;99.90
9907;DHT22;4992;51.628;6.664;2023-02-28T08:23:10;1.20;99.90
9907;DHT22;4992;51.628;6.664;2023-02-28T08:25:35;1.40;99.90
9907;DHT22;4992;51.628;6.664;2023-02-28T08:28:01;1.60;99.90
9907;DHT22;4992;51.628;6.664;2023-02-28T08:30:26;1.80;99.90
9907;DHT22;4992;51.628;6.664;2023-02-28T08:32:52;1.90;99.90
9907;DHT22;4992;51.628;6.664;2023-02-28T08:35:17;2.10;99.90
9907;DHT22;4992;51.628;6.664;2023-02-28T08:37:43;2.20;99.90
9907;DHT22;4992;51.628;6.664;2023-02-28T08:40:09;2.20;99.90
9907;DHT22;4992;51.628;6.664;2023-02-28T08:42:35;2.30;99.90
9907;DHT22;4992;51.628;6.664;2023-02-28T08:45:00;2.30;99.90
9907;DHT22;4992;51.628;6.664;2023-02-28T08:47:26;2.40;99.90
9907;DHT22;4992;51.628;6.664;2023-02-28T08:49:51;2.50;99.90
9907;DHT22;4992;51.628;6.664;2023-02-28T08:52:17;2.50;99.90
9907;DHT22;4992;51.628;6.664;2023-02-28T08:54:42;2.60;99.90
9907;DHT22;4992;51.628;6.664;2023-02-28T08:57:08;2.70;99.90
9907;DHT22;4992;51.628;6.664;2023-02-28T08:59:33;2.80;99.90
9907;DHT22;4992;51.628;6.664;2023-02-28T09:01:59;2.80;99.90
9907;DHT22;4992;51.628;6.664;2023-02-28T09:04:25;2.80;99.90
9907;DHT22;4992;51.628;6.664;2023-02-28T09:06:50;2.80;99.90
9907;DHT22;4992;51.628;6.664;2023-02-28T09:09:16;2.80;99.90
9907;DHT22;4992;51.628;6.664;2023-02-28T09:11:41;2.80;99.90
9907;DHT22;4992;51.628;6.664;2023-02-28T09:14:07;2.90;99.90
9907;DHT22;4992;51.628;6.664;2023-02-28T09:16:34;2.80;99.90
9907;DHT22;4992;51.628;6.664;2023-02-28T09:19:00;2.80;99.90
9907;DHT22;4992;51.628;6.664;2023-02-28T09:21:26;2.80;99.90
9907;DHT22;4992;51.628;6.664;2023-02-28T09:23:52;2.80;99.90
9907;DHT22;4992;51.628;6.664;2023-02-28T09:26:20;2.90;99.90
9907;DHT22;4992;51.628;6.664;2023-02-28T09:28:46;2.90;99.90
9907;DHT22;4992;51.628;6.664;2023-02-28T09:31:14;3.00;99.90
9907;DHT22;4992;51.628;6.664;2023-02-28T09:33:40;3.00;99.90
9907;DHT22;4992;51.628;6.664;2023-02-28T09:36:06;3.10;99.90
9907;DHT22;4992;51.628;6.664;2023-02-28T09:38:32;3.10;99.90
9907;DHT22;4992;51.628;6.664;2023-02-28T09:41:02;3.20;99.90
9907;DHT22;4992;51.628;6.664;2023-02-28T09:43:35;3.30;99.90
9907;DHT22;4992;51.628;6.664;2023-02-28T09:48:50;3.40;99.90
9907;DHT22;4992;51.628;6.664;2023-02-28T09:54:05;3.70;99.90
9907;DHT22;4992;51.628;6.664;2023-02-28T09:59:13;3.80;99.90
9907;DHT22;4992;51.628;6.664;2023-02-28T10:01:57;3.80;99.90
9907;DHT22;4992;51.628;6.664;2023-02-28T10:04:46;3.90;99.90
9907;DHT22;4992;51.628;6.664;2023-02-28T10:10:07;4.10;99.90
9907;DHT22;4992;51.628;6.664;2023-02-28T10:12:40;4.20;99.90
9907;DHT22;4992;51.628;6.664;2023-02-28T10:15:14;4.20;99.90
9907;DHT22;4992;51.628;6.664;2023-02-28T10:17:42;4.20;99.90
9907;DHT22;4992;51.628;6.664;2023-02-28T10:20:14;4.30;99.40
9907;DHT22;4992;51.628;6.664;2023-02-28T10:25:29;4.40;98.80
9907;DHT22;4992;51.628;6.664;2023-02-28T10:28:15;4.50;97.90
9907;DHT22;4992;51.628;6.664;2023-02-28T10:30:46;4.60;98.30
9907;DHT22;4992;51.628;6.664;2023-02-28T10:33:31;4.80;97.60
9907;DHT22;4992;51.628;6.664;2023-02-28T10:35:58;4.90;98.00
9907;DHT22;4992;51.628;6.664;2023-02-28T10:38:26;4.90;97.50
9907;DHT22;4992;51.628;6.664;2023-02-28T10:41:13;5.00;96.50
9907;DHT22;4992;51.628;6.664;2023-02-28T10:43:41;5.10;96.10
9907;DHT22;4992;51.628;6.664;2023-02-28T10:48:40;5.20;94.50
9907;DHT22;4992;51.628;6.664;2023-02-28T10:51:16;5.20;94.50
9907;DHT22;4992;51.628;6.664;2023-02-28T11:01:14;5.40;93.40
9907;DHT22;4992;51.628;6.664;2023-02-28T11:03:40;5.50;93.90
9907;DHT22;4992;51.628;6.664;2023-02-28T11:06:10;5.60;93.30
9907;DHT22;4992;51.628;6.664;2023-02-28T11:08:49;5.70;93.20
9907;DHT22;4992;51.628;6.664;2023-02-28T11:11:16;5.90;92.80
9907;DHT22;4992;51.628;6.664;2023-02-28T11:13:44;6.10;92.20
9907;DHT22;4992;51.628;6.664;2023-02-28T11:16:12;6.30;92.50
9907;DHT22;4992;51.628;6.664;2023-02-28T11:18:44;6.60;92.60
9907;DHT22;4992;51.628;6.664;2023-02-28T11:21:37;7.00;92.90
9907;DHT22;4992;51.628;6.664;2023-02-28T11:24:23;7.40;91.80
9907;DHT22;4992;51.628;6.664;2023-02-28T11:26:50;7.50;90.70
9907;DHT22;4992;51.628;6.664;2023-02-28T11:29:20;7.40;88.90
9907;DHT22;4992;51.628;6.664;2023-02-28T11:32:15;7.50;89.70
9907;DHT22;4992;51.628;6.664;2023-02-28T11:34:42;7.90;90.40
9907;DHT22;4992;51.628;6.664;2023-02-28T11:37:13;8.30;90.20
9907;DHT22;4992;51.628;6.664;2023-02-28T11:39:40;8.50;88.70
9907;DHT22;4992;51.628;6.664;2023-02-28T11:45:24;8.60;84.90
9907;DHT22;4992;51.628;6.664;2023-02-28T11:50:54;8.90;86.30
9907;DHT22;4992;51.628;6.664;2023-02-28T11:56:16;9.50;84.20
9907;DHT22;4992;51.628;6.664;2023-02-28T12:04:24;9.90;81.70
9907;DHT22;4992;51.628;6.664;2023-02-28T12:07:03;9.80;80.60
9907;DHT22;4992;51.628;6.664;2023-02-28T12:09:51;9.80;79.50
9907;DHT22;4992;51.628;6.664;2023-02-28T12:12:38;9.80;80.10
9907;DHT22;4992;51.628;6.664;2023-02-28T12:26:40;9.60;79.00
9907;DHT22;4992;51.628;6.664;2023-02-28T12:28:47;9.70;79.00
9907;DHT22;4992;51.628;6.664;2023-02-28T12:31:23;9.90;78.00
9907;DHT22;4992;51.628;6.664;2023-02-28T12:33:55;10.10;77.90
9907;DHT22;4992;51.628;6.664;2023-02-28T12:36:22;10.40;76.10
9907;DHT22;4992;51.628;6.664;2023-02-28T12:38:54;10.40;74.80
9907;DHT22;4992;51.628;6.664;2023-02-28T12:41:37;10.80;76.30
9907;DHT22;4992;51.628;6.664;2023-02-28T12:44:09;11.30;76.30
9907;DHT22;4992;51.628;6.664;2023-02-28T12:46:41;11.40;72.70
9907;DHT22;4992;51.628;6.664;2023-02-28T12:49:22;11.30;73.10
9907;DHT22;4992;51.628;6.664;2023-02-28T12:51:50;11.60;72.20
9907;DHT22;4992;51.628;6.664;2023-02-28T12:54:31;11.90;72.80
9907;DHT22;4992;51.628;6.664;2023-02-28T12:59:56;12.10;68.70
9907;DHT22;4992;51.628;6.664;2023-02-28T13:02:49;11.90;69.00
9907;DHT22;4992;51.628;6.664;2023-02-28T13:08:06;11.80;66.60
9907;DHT22;4992;51.628;6.664;2023-02-28T13:10:45;11.60;69.40
9907;DHT22;4992;51.628;6.664;2023-02-28T13:13:15;12.00;70.10
9907;DHT22;4992;51.628;6.664;2023-02-28T13:18:31;12.60;68.20
9907;DHT22;4992;51.628;6.664;2023-02-28T13:20:57;12.90;66.40
9907;DHT22;4992;51.628;6.664;2023-02-28T13:26:11;13.10;65.30
9907;DHT22;4992;51.628;6.664;2023-02-28T13:28:59;13.20;66.50
9907;DHT22;4992;51.628;6.664;2023-02-28T13:31:25;13.40;65.90
9907;DHT22;4992;51.628;6.664;2023-02-28T13:36:26;14.30;63.40
9907;DHT22;4992;51.628;6.664;2023-02-28T13:38:59;14.60;62.40
9907;DHT22;4992;51.628;6.664;2023-02-28T13:44:19;14.70;61.70
9907;DHT22;4992;51.628;6.664;2023-02-28T13:51:53;14.90;60.00
9907;DHT22;4992;51.628;6.664;2023-02-28T13:54:45;14.80;58.90
9907;DHT22;4992;51.628;6.664;2023-02-28T13:57:40;14.80;58.90
9907;DHT22;4992;51.628;6.664;2023-02-28T14:00:21;14.90;58.80
9907;DHT22;4992;51.628;6.664;2023-02-28T14:03:44;15.20;58.00
9907;DHT22;4992;51.628;6.664;2023-02-28T14:08:55;15.40;55.50
9907;DHT22;4992;51.628;6.664;2023-02-28T14:11:43;15.20;55.60
9907;DHT22;4992;51.628;6.664;2023-02-28T14:14:52;15.50;57.80
9907;DHT22;4992;51.628;6.664;2023-02-28T14:16:56;15.90;54.70
9907;DHT22;4992;51.628;6.664;2023-02-28T14:19:26;15.40;55.40
9907;DHT22;4992;51.628;6.664;2023-02-28T14:27:44;14.80;55.30
9907;DHT22;4992;51.628;6.664;2023-02-28T14:30:31;15.10;56.60
9907;DHT22;4992;51.628;6.664;2023-02-28T14:36:04;14.90;55.60
9907;DHT22;4992;51.628;6.664;2023-02-28T14:38:46;14.90;56.20
9907;DHT22;4992;51.628;6.664;2023-02-28T14:41:26;14.90;55.00
9907;DHT22;4992;51.628;6.664;2023-02-28T14:43:56;14.20;55.50
9907;DHT22;4992;51.628;6.664;2023-02-28T14:46:45;13.20;56.00
9907;DHT22;4992;51.628;6.664;2023-02-28T14:49:16;12.60;58.20
9907;DHT22;4992;51.628;6.664;2023-02-28T14:51:42;11.80;58.40
9907;DHT22;4992;51.628;6.664;2023-02-28T14:54:14;11.00;60.40
9907;DHT22;4992;51.628;6.664;2023-02-28T14:56:40;10.10;59.80
9907;DHT22;4992;51.628;6.664;2023-02-28T14:59:23;9.40;61.90
9907;DHT22;4992;51.628;6.664;2023-02-28T15:01:49;9.10;65.60
9907;DHT22;4992;51.628;6.664;2023-02-28T15:04:23;8.80;65.60
9907;DHT22;4992;51.628;6.664;2023-02-28T15:07:10;8.60;66.20
9907;DHT22;4992;51.628;6.664;2023-02-28T15:09:36;8.50;67.60
9907;DHT22;4992;51.628;6.664;2023-02-28T15:12:02;8.20;67.60
9907;DHT22;4992;51.628;6.664;2023-02-28T15:14:28;8.10;70.80
9907;DHT22;4992;51.628;6.664;2023-02-28T15:17:02;8.10;70.90
9907;DHT22;4992;51.628;6.664;2023-02-28T15:19:36;8.20;73.90
9907;DHT22;4992;51.628;6.664;2023-02-28T15:22:08;8.20;73.60
9907;DHT22;4992;51.628;6.664;2023-02-28T15:24:46;8.10;73.50
9907;DHT22;4992;51.628;6.664;2023-02-28T15:27:16;8.10;74.50
9907;DHT22;4992;51.628;6.664;2023-02-28T15:29:51;8.00;73.70
9907;DHT22;4992;51.628;6.664;2023-02-28T15:32:34;7.80;73.70
9907;DHT22;4992;51.628;6.664;2023-02-28T15:40:42;7.20;76.30
9907;DHT22;4992;51.628;6.664;2023-02-28T15:43:16;7.20;77.60
9907;DHT22;4992;51.628;6.664;2023-02-28T15:46:06;7.30;78.00
9907;DHT22;4992;51.628;6.664;2023-02-28T15:48:43;7.30;78.50
9907;DHT22;4992;51.628;6.664;2023-02-28T15:51:29;7.10;77.20
9907;DHT22;4992;51.628;6.664;2023-02-28T15:54:01;7.00;77.10
9907;DHT22;4992;51.628;6.664;2023-02-28T15:56:30;6.80;78.90
9907;DHT22;4992;51.628;6.664;2023-02-28T15:58:59;6.70;79.40
9907;DHT22;4992;51.628;6.664;2023-02-28T16:01:31;6.60;80.00
9907;DHT22;4992;51.628;6.664;2023-02-28T16:04:13;6.50;80.10
9907;DHT22;4992;51.628;6.664;2023-02-28T16:06:46;6.40;81.30
9907;DHT22;4992;51.628;6.664;2023-02-28T16:09:25;6.30;81.90
9907;DHT22;4992;51.628;6.664;2023-02-28T16:11:54;6.30;82.40
9907;DHT22;4992;51.628;6.664;2023-02-28T16:14:23;6.10;83.10
9907;DHT22;4992;51.628;6.664;2023-02-28T16:16:52;6.10;84.30
9907;DHT22;4992;51.628;6.664;2023-02-28T16:19:18;6.00;84.70
9907;DHT22;4992;51.628;6.664;2023-02-28T16:21:44;5.90;86.20
9907;DHT22;4992;51.628;6.664;2023-02-28T16:24:10;5.80;86.60
9907;DHT22;4992;51.628;6.664;2023-02-28T16:26:36;5.80;87.20
9907;DHT22;4992;51.628;6.664;2023-02-28T16:29:04;5.70;87.30
9907;DHT22;4992;51.628;6.664;2023-02-28T16:31:33;5.70;87.40
9907;DHT22;4992;51.628;6.664;2023-02-28T16:34:00;5.60;87.80
9907;DHT22;4992;51.628;6.664;2023-02-28T16:36:26;5.50;87.90
9907;DHT22;4992;51.628;6.664;2023-02-28T16:38:54;5.50;89.30
9907;DHT22;4992;51.628;6.664;2023-02-28T16:41:22;5.40;90.00
9907;DHT22;4992;51.628;6.664;2023-02-28T16:43:51;5.40;90.00
9907;DHT22;4992;51.628;6.664;2023-02-28T16:46:18;5.30;90.50
9907;DHT22;4992;51.628;6.664;2023-02-28T16:48:45;5.20;90.80
9907;DHT22;4992;51.628;6.664;2023-02-28T16:51:14;5.20;90.70
9907;DHT22;4992;51.628;6.664;2023-02-28T16:53:40;5.10;91.30
9907;DHT22;4992;51.628;6.664;2023-02-28T16:56:06;5.00;91.50
9907;DHT22;4992;51.628;6.664;2023-02-28T16:58:37;5.00;91.40
9907;DHT22;4992;51.628;6.664;2023-02-28T17:01:03;4.90;91.50
9907;DHT22;4992;51.628;6.664;2023-02-28T17:03:29;4.90;91.70
9907;DHT22;4992;51.628;6.664;2023-02-28T17:05:55;4.80;91.90
9907;DHT22;4992;51.628;6.664;2023-02-28T17:08:20;4.80;92.40
9907;DHT22;4992;51.628;6.664;2023-02-28T17:10:46;4.70;93.10
9907;DHT22;4992;51.628;6.664;2023-02-28T17:13:12;4.70;92.80
9907;DHT22;4992;51.628;6.664;2023-02-28T17:15:38;4.60;93.70
9907;DHT22;4992;51.628;6.664;2023-02-28T17:18:04;4.60;93.90
9907;DHT22;4992;51.628;6.664;2023-02-28T17:20:30;4.50;93.90
9907;DHT22;4992;51.628;6.664;2023-02-28T17:22:57;4.40;93.80
9907;DHT22;4992;51.628;6.664;2023-02-28T17:25:23;4.30;94.60
9907;DHT22;4992;51.628;6.664;2023-02-28T17:27:50;4.20;93.80
9907;DHT22;4992;51.628;6.664;2023-02-28T17:30:19;4.10;95.10
9907;DHT22;4992;51.628;6.664;2023-02-28T17:32:45;4.10;96.50
9907;DHT22;4992;51.628;6.664;2023-02-28T17:35:12;4.00;96.70
9907;DHT22;4992;51.628;6.664;2023-02-28T17:37:37;3.90;96.90
9907;DHT22;4992;51.628;6.664;2023-02-28T17:40:04;3.80;96.20
9907;DHT22;4992;51.628;6.664;2023-02-28T17:42:30;3.70;96.20
9907;DHT22;4992;51.628;6.664;2023-02-28T17:44:56;3.60;96.40
9907;DHT22;4992;51.628;6.664;2023-02-28T17:47:21;3.60;97.30
9907;DHT22;4992;51.628;6.664;2023-02-28T17:49:47;3.50;99.10
9907;DHT22;4992;51.628;6.664;2023-02-28T17:52:13;3.40;99.30
9907;DHT22;4992;51.628;6.664;2023-02-28T17:54:38;3.40;99.90
9907;DHT22;4992;51.628;6.664;2023-02-28T17:57:04;3.30;99.90
9907;DHT22;4992;51.628;6.664;2023-02-28T17:59:29;3.20;99.90
9907;DHT22;4992;51.628;6.664;2023-02-28T18:02:00;3.10;99.90
9907;DHT22;4992;51.628;6.664;2023-02-28T18:04:25;3.00;99.90
9907;DHT22;4992;51.628;6.664;2023-02-28T18:06:52;2.90;99.90
9907;DHT22;4992;51.628;6.664;2023-02-28T18:09:21;2.80;99.90
9907;DHT22;4992;51.628;6.664;2023-02-28T18:11:48;2.70;99.90
9907;DHT22;4992;51.628;6.664;2023-02-28T18:14:17;2.60;99.90
9907;DHT22;4992;51.628;6.664;2023-02-28T18:16:43;2.50;99.90
9907;DHT22;4992;51.628;6.664;2023-02-28T18:19:09;2.50;99.90
9907;DHT22;4992;51.628;6.664;2023-02-28T18:21:40;2.50;99.90
9907;DHT22;4992;51.628;6.664;2023-02-28T18:24:07;2.40;99.90
9907;DHT22;4992;51.628;6.664;2023-02-28T18:26:33;2.40;99.90
9907;DHT22;4992;51.628;6.664;2023-02-28T18:28:58;2.30;99.90
9907;DHT22;4992;51.628;6.664;2023-02-28T18:31:24;2.30;99.90
9907;DHT22;4992;51.628;6.664;2023-02-28T18:33:51;2.30;99.90
9907;DHT22;4992;51.628;6.664;2023-02-28T18:36:17;2.20;99.90
9907;DHT22;4992;51.628;6.664;2023-02-28T18:38:46;2.10;99.90
9907;DHT22;4992;51.628;6.664;2023-02-28T18:41:12;2.00;99.90
9907;DHT22;4992;51.628;6.664;2023-02-28T18:43:38;2.00;99.90
9907;DHT22;4992;51.628;6.664;2023-02-28T18:46:09;1.90;99.90
9907;DHT22;4992;51.628;6.664;2023-02-28T18:48:35;1.90;99.90
9907;DHT22;4992;51.628;6.664;2023-02-28T18:51:11;1.80;99.90
9907;DHT22;4992;51.628;6.664;2023-02-28T18:53:38;1.70;99.90
9907;DHT22;4992;51.628;6.664;2023-02-28T18:56:05;1.70;99.90
9907;DHT22;4992;51.628;6.664;2023-02-28T18:58:31;1.60;99.90
9907;DHT22;4992;51.628;6.664;2023-02-28T19:01:16;1.50;99.90
9907;DHT22;4992;51.628;6.664;2023-02-28T19:03:43;1.40;99.90
9907;DHT22;4992;51.628;6.664;2023-02-28T19:06:09;1.30;99.90
9907;DHT22;4992;51.628;6.664;2023-02-28T19:08:35;1.30;99.90
9907;DHT22;4992;51.628;6.664;2023-02-28T19:11:09;1.30;99.90
9907;DHT22;4992;51.628;6.664;2023-02-28T19:13:35;1.30;99.90
9907;DHT22;4992;51.628;6.664;2023-02-28T19:16:03;1.20;99.90
9907;DHT22;4992;51.628;6.664;2023-02-28T19:18:29;1.20;99.90
9907;DHT22;4992;51.628;6.664;2023-02-28T19:20:55;1.10;99.90
9907;DHT22;4992;51.628;6.664;2023-02-28T19:23:20;1.10;99.90
9907;DHT22;4992;51.628;6.664;2023-02-28T19:25:46;1.10;99.90
9907;DHT22;4992;51.628;6.664;2023-02-28T19:28:12;1.00;99.90
9907;DHT22;4992;51.628;6.664;2023-02-28T19:30:38;1.00;99.90
9907;DHT22;4992;51.628;6.664;2023-02-28T19:33:04;0.90;99.90
9907;DHT22;4992;51.628;6.664;2023-02-28T19:35:29;0.90;99.90
9907;DHT22;4992;51.628;6.664;2023-02-28T19:37:55;0.90;99.90
9907;DHT22;4992;51.628;6.664;2023-02-28T19:40:20;0.80;99.90
9907;DHT22;4992;51.628;6.664;2023-02-28T19:42:46;0.80;99.90
9907;DHT22;4992;51.628;6.664;2023-02-28T19:45:12;0.70;99.90
9907;DHT22;4992;51.628;6.664;2023-02-28T19:47:40;0.70;99.90
9907;DHT22;4992;51.628;6.664;2023-02-28T19:50:06;0.60;99.90
9907;DHT22;4992;51.628;6.664;2023-02-28T19:52:32;0.50;99.90
9907;DHT22;4992;51.628;6.664;2023-02-28T19:54:59;0.40;99.90
9907;DHT22;4992;51.628;6.664;2023-02-28T19:57:24;0.30;99.90
9907;DHT22;4992;51.628;6.664;2023-02-28T19:59:50;0.20;99.90
9907;DHT22;4992;51.628;6.664;2023-02-28T20:02:18;0.20;99.90
9907;DHT22;4992;51.628;6.664;2023-02-28T20:04:48;0.20;99.90
9907;DHT22;4992;51.628;6.664;2023-02-28T20:07:17;0.20;99.90
9907;DHT22;4992;51.628;6.664;2023-02-28T20:09:45;0.20;99.90
9907;DHT22;4992;51.628;6.664;2023-02-28T20:12:11;0.10;99.90
9907;DHT22;4992;51.628;6.664;2023-02-28T20:14:36;0.10;99.90
9907;DHT22;4992;51.628;6.664;2023-02-28T20:17:02;0.00;99.90
9907;DHT22;4992;51.628;6.664;2023-02-28T20:19:28;-0.10;99.90
9907;DHT22;4992;51.628;6.664;2023-02-28T20:21:53;-0.10;99.90
9907;DHT22;4992;51.628;6.664;2023-02-28T20:24:19;-0.10;99.90
9907;DHT22;4992;51.628;6.664;2023-02-28T20:26:52;-0.10;99.90
9907;DHT22;4992;51.628;6.664;2023-02-28T20:29:18;-0.10;99.90
9907;DHT22;4992;51.628;6.664;2023-02-28T20:31:44;-0.10;99.90
9907;DHT22;4992;51.628;6.664;2023-02-28T20:34:09;-0.20;99.90
9907;DHT22;4992;51.628;6.664;2023-02-28T20:36:35;-0.20;99.90
9907;DHT22;4992;51.628;6.664;2023-02-28T20:39:01;-0.30;99.90
9907;DHT22;4992;51.628;6.664;2023-02-28T20:41:26;-0.30;99.90
9907;DHT22;4992;51.628;6.664;2023-02-28T20:43:53;-0.30;99.90
9907;DHT22;4992;51.628;6.664;2023-02-28T20:46:19;-0.40;99.90
9907;DHT22;4992;51.628;6.664;2023-02-28T20:48:44;-0.40;99.90
9907;DHT22;4992;51.628;6.664;2023-02-28T20:51:10;-0.40;99.90
9907;DHT22;4992;51.628;6.664;2023-02-28T20:53:36;-0.40;99.90
9907;DHT22;4992;51.628;6.664;2023-02-28T20:58:29;-0.50;99.90
9907;DHT22;4992;51.628;6.664;2023-02-28T21:01:19;-0.50;99.90
9907;DHT22;4992;51.628;6.664;2023-02-28T21:03:57;-0.60;99.90
9907;DHT22;4992;51.628;6.664;2023-02-28T21:06:25;-0.60;99.90
9907;DHT22;4992;51.628;6.664;2023-02-28T21:08:51;-0.60;99.90
9907;DHT22;4992;51.628;6.664;2023-02-28T21:11:26;-0.60;99.90
9907;DHT22;4992;51.628;6.664;2023-02-28T21:13:53;-0.60;99.90
9907;DHT22;4992;51.628;6.664;2023-02-28T21:16:22;-0.60;99.90
9907;DHT22;4992;51.628;6.664;2023-02-28T21:18:48;-0.60;99.90
9907;DHT22;4992;51.628;6.664;2023-02-28T21:21:16;-0.60;99.90
9907;DHT22;4992;51.628;6.664;2023-02-28T21:23:43;-0.70;99.90
9907;DHT22;4992;51.628;6.664;2023-02-28T21:26:14;-0.70;99.90
9907;DHT22;4992;51.628;6.664;2023-02-28T21:28:41;-0.70;99.90
9907;DHT22;4992;51.628;6.664;2023-02-28T21:31:10;-0.70;99.90
9907;DHT22;4992;51.628;6.664;2023-02-28T21:33:36;-0.70;99.90
9907;DHT22;4992;51.628;6.664;2023-02-28T21:36:05;-0.80;99.90
9907;DHT22;4992;51.628;6.664;2023-02-28T21:38:31;-0.80;99.90
9907;DHT22;4992;51.628;6.664;2023-02-28T21:41:08;-0.80;99.90
9907;DHT22;4992;51.628;6.664;2023-02-28T21:43:34;-0.90;99.90
9907;DHT22;4992;51.628;6.664;2023-02-28T21:46:05;-0.90;99.90
9907;DHT22;4992;51.628;6.664;2023-02-28T21:48:31;-0.90;99.90
9907;DHT22;4992;51.628;6.664;2023-02-28T21:51:02;-0.90;99.90
9907;DHT22;4992;51.628;6.664;2023-02-28T21:53:29;-0.90;99.90
9907;DHT22;4992;51.628;6.664;2023-02-28T21:55:59;-1.00;99.90
9907;DHT22;4992;51.628;6.664;2023-02-28T21:58:24;-1.00;99.90
9907;DHT22;4992;51.628;6.664;2023-02-28T22:00:50;-1.00;99.90
9907;DHT22;4992;51.628;6.664;2023-02-28T22:03:16;-1.00;99.90
9907;DHT22;4992;51.628;6.664;2023-02-28T22:05:41;-1.10;99.90
9907;DHT22;4992;51.628;6.664;2023-02-28T22:08:07;-1.10;99.90
9907;DHT22;4992;51.628;6.664;2023-02-28T22:10:34;-1.20;99.90
9907;DHT22;4992;51.628;6.664;2023-02-28T22:13:00;-1.20;99.90
9907;DHT22;4992;51.628;6.664;2023-02-28T22:15:33;-1.30;99.90
9907;DHT22;4992;51.628;6.664;2023-02-28T22:17:59;-1.30;99.90
9907;DHT22;4992;51.628;6.664;2023-02-28T22:20:25;-1.30;99.90
9907;DHT22;4992;51.628;6.664;2023-02-28T22:22:50;-1.30;99.90
9907;DHT22;4992;51.628;6.664;2023-02-28T22:25:16;-1.30;99.90
9907;DHT22;4992;51.628;6.664;2023-02-28T22:27:42;-1.30;99.90
9907;DHT22;4992;51.628;6.664;2023-02-28T22:30:08;-1.40;99.90
9907;DHT22;4992;51.628;6.664;2023-02-28T22:32:34;-1.40;99.90
9907;DHT22;4992;51.628;6.664;2023-02-28T22:35:00;-1.40;99.90
9907;DHT22;4992;51.628;6.664;2023-02-28T22:37:25;-1.40;99.90
9907;DHT22;4992;51.628;6.664;2023-02-28T22:39:51;-1.40;99.90
9907;DHT22;4992;51.628;6.664;2023-02-28T22:42:17;-1.50;99.90
9907;DHT22;4992;51.628;6.664;2023-02-28T22:44:42;-1.50;99.90
9907;DHT22;4992;51.628;6.664;2023-02-28T22:47:11;-1.50;99.90
9907;DHT22;4992;51.628;6.664;2023-02-28T22:49:37;-1.50;99.90
9907;DHT22;4992;51.628;6.664;2023-02-28T22:52:03;-1.60;99.90
9907;DHT22;4992;51.628;6.664;2023-02-28T22:54:29;-1.60;99.90
9907;DHT22;4992;51.628;6.664;2023-02-28T22:56:54;-1.50;99.90
9907;DHT22;4992;51.628;6.664;2023-02-28T22:59:20;-1.50;99.90
9907;DHT22;4992;51.628;6.664;2023-02-28T23:01:46;-1.60;99.90
9907;DHT22;4992;51.628;6.664;2023-02-28T23:04:12;-1.60;99.90
9907;DHT22;4992;51.628;6.664;2023-02-28T23:06:39;-1.60;99.90
9907;DHT22;4992;51.628;6.664;2023-02-28T23:09:13;-1.60;99.90
9907;DHT22;4992;51.628;6.664;2023-02-28T23:11:45;-1.70;99.90
9907;DHT22;4992;51.628;6.664;2023-02-28T23:14:12;-1.70;99.90
9907;DHT22;4992;51.628;6.664;2023-02-28T23:16:49;-1.70;99.90
9907;DHT22;4992;51.628;6.664;2023-02-28T23:19:22;-1.70;99.90
9907;DHT22;4992;51.628;6.664;2023-02-28T23:21:48;-1.70;99.90
9907;DHT22;4992;51.628;6.664;2023-02-28T23:24:15;-1.70;99.90
9907;DHT22;4992;51.628;6.664;2023-02-28T23:26:46;-1.70;99.90
9907;DHT22;4992;51.628;6.664;2023-02-28T23:29:14;-1.70;99.90
9907;DHT22;4992;51.628;6.664;2023-02-28T23:31:40;-1.70;99.90
9907;DHT22;4992;51.628;6.664;2023-02-28T23:34:06;-1.80;99.90
9907;DHT22;4992;51.628;6.664;2023-02-28T23:36:32;-1.80;99.90
9907;DHT22;4992;51.628;6.664;2023-02-28T23:38:58;-1.80;99.90
9907;DHT22;4992;51.628;6.664;2023-02-28T23:41:24;-1.80;99.90
9907;DHT22;4992;51.628;6.664;2023-02-28T23:43:53;-1.80;99.90
9907;DHT22;4992;51.628;6.664;2023-02-28T23:46:20;-1.90;99.90
9907;DHT22;4992;51.628;6.664;2023-02-28T23:48:46;-1.80;99.90
9907;DHT22;4992;51.628;6.664;2023-02-28T23:51:15;-1.90;99.90
9907;DHT22;4992;51.628;6.664;2023-02-28T23:53:44;-1.80;99.90
9907;DHT22;4992;51.628;6.664;2023-02-28T23:56:11;-1.90;99.90
9907;DHT22;4992;51.628;6.664;2023-02-28T23:58:39;-1.90;99.90
